Aviation Digital Data Service (ADDS)

Output produced by METARs form (0014 UTC 20 April 2019)
found at http://www.aviationweather.gov/metar/data/
 
Forecast for: LPOV (OVAR MIL , PT)
Text: TAF LPOV 192307Z 2000/2024 07008KT CAVOK
Forecast period: 0000 to 0900 UTC 20 April 2019
Forecast type: FROM: standard forecast or significant change
Winds: from the ENE (70 degrees) at 9 MPH (8 knots; 4.1 m/s)
Visibility: 6 or more miles 10+ km)
Ceiling: unknown
Clouds: missing
Weather: NSW  (no significant weather)
Text: BECMG 2009/2011 35012KT
Forecast period: 0900 to 2000 UTC 20 April 2019
Forecast type: BECOMING: Conditions expected to become as follows by 1100 UTC 20 April 2019
Winds: from the N (350 degrees) at 14 MPH (12 knots; 6.2 m/s)
Visibility: 6 or more miles 10+ km)
Ceiling: unknown
Clouds: missing
Weather: NSW  (no significant weather)
Text: BECMG 2020/2022 VRB02KT
Forecast period: 2000 UTC 20 April 2019 to 0000 UTC 21 April 2019
Forecast type: BECOMING: Conditions expected to become as follows by 2200 UTC 20 April 2019
Winds: variable direction winds at 2 MPH (2 knots; 1.0 m/s)
Visibility: 6 or more miles 10+ km)
Ceiling: unknown
Clouds: missing
Weather: NSW  (no significant weather)